Leyendecker II PSRC

2021-07-24 21:35:00

  • imperial
Date Time Air Temperature Relative Humidity Dewpoint Windchill Heat Index Wind Speed Wind Dir. Rain Solar Radiation Soil Temperature
2m 2m 3m 3m 10cm
US/Mountain F % F F F MPH deg in MJ/m^2 F
max avg avg
2021-07-23 21:45:00 68.5 81.8 62.7 68.5 68.5 11.5 13.7 10.2 332.7 324.4 0.00 0.0001048 78.3
2021-07-23 21:50:00 68.3 80.0 61.9 68.3 68.3 7.2 14.2 9.6 0.1 336.0 0.00 0.0000000 78.3
2021-07-23 21:55:00 69.0 80.3 62.7 69.0 69.0 2.8 8.8 5.4 334.6 8.7 0.00 0.0000010 78.3
2021-07-23 22:00:00 68.2 83.8 63.1 68.2 68.2 1.5 3.8 2.4 263.1 268.0 0.00 0.0000000 78.2
2021-07-23 22:05:00 68.3 82.1 62.6 68.3 68.3 6.7 6.7 4.1 291.2 290.6 0.00 0.0000070 78.2
2021-07-23 22:10:00 69.4 78.9 62.6 69.4 69.4 5.3 7.2 5.2 327.8 314.6 0.00 0.0000158 78.2
2021-07-23 22:15:00 69.3 79.2 62.5 69.3 69.3 4.6 6.3 5.1 304.7 306.7 0.00 0.0000000 78.2
2021-07-23 22:20:00 68.9 80.1 62.5 68.9 68.9 5.5 6.5 4.9 307.9 311.5 0.00 0.0000000 78.2
2021-07-23 22:25:00 68.6 82.5 63.1 68.6 68.6 2.1 4.9 3.8 293.0 300.5 0.00 0.0000000 78.1
2021-07-23 22:30:00 68.0 83.5 62.9 68.0 68.0 5.1 5.1 2.3 294.8 268.3 0.00 0.0000000 78.1
2021-07-23 22:35:00 67.8 84.3 62.9 67.8 67.8 3.1 4.7 3.1 291.9 280.1 0.00 0.0000000 78.1
2021-07-23 22:40:00 67.5 85.0 62.8 67.5 67.5 1.9 3.8 2.4 277.1 290.9 0.00 0.0000000 78.1
2021-07-23 22:45:00 67.4 85.2 62.8 67.4 67.4 1.5 3.3 2.2 308.4 287.6 0.00 0.0000000 78.1
2021-07-23 22:50:00 67.2 84.4 62.4 67.2 67.2 3.3 3.7 2.2 323.1 320.1 0.00 0.0000000 78.0
2021-07-23 22:55:00 67.3 83.6 62.2 67.3 67.3 2.8 3.7 2.9 299.2 335.5 0.00 0.0000000 78.0
2021-07-23 23:00:00 67.2 82.8 61.8 67.2 67.2 4.2 4.2 2.8 317.1 337.7 0.00 0.0000000 78.0
2021-07-23 23:05:00 67.2 83.2 62.0 67.2 67.2 3.8 4.7 3.8 311.5 322.2 0.00 0.0000000 78.0
2021-07-23 23:10:00 67.2 80.5 61.0 67.2 67.2 4.0 6.2 4.9 325.2 317.8 0.00 0.0000000 78.0
2021-07-23 23:15:00 67.3 81.1 61.3 67.3 67.3 4.9 7.8 5.9 326.0 319.8 0.00 0.0000000 78.0
2021-07-23 23:20:00 67.1 81.3 61.1 67.1 67.1 4.6 6.2 4.4 337.7 333.2 0.00 0.0000000 77.9
2021-07-23 23:25:00 67.1 78.4 60.2 67.1 67.1 5.5 6.7 4.8 315.9 323.0 0.00 0.0000000 77.9
2021-07-23 23:30:00 67.2 78.6 60.3 67.2 67.2 4.7 5.8 4.1 319.3 316.7 0.00 0.0000000 77.9
2021-07-23 23:35:00 67.1 79.3 60.5 67.1 67.1 4.6 6.3 5.1 308.5 316.9 0.00 0.0000000 77.9
2021-07-23 23:40:00 67.0 79.4 60.4 67.0 67.0 3.3 7.2 4.6 326.3 313.7 0.00 0.0000000 77.9
2021-07-23 23:45:00 66.7 80.6 60.5 66.7 66.7 4.9 6.0 4.3 335.4 315.7 0.00 0.0000000 77.9
2021-07-23 23:50:00 66.5 80.4 60.3 66.5 66.5 6.2 6.2 5.0 341.1 329.5 0.00 0.0000000 77.8
2021-07-23 23:55:00 66.5 80.8 60.4 66.5 66.5 5.1 6.0 5.1 314.6 328.6 0.00 0.0000000 77.8
2021-07-24 00:00:00 66.3 82.3 60.7 66.3 66.3 4.7 5.8 4.9 333.7 322.3 0.00 0.0000000 77.8
2021-07-24 00:05:00 66.2 81.3 60.3 66.2 66.2 3.8 5.8 4.3 325.2 320.8 0.00 0.0000000 77.8
2021-07-24 00:10:00 66.2 83.1 60.9 66.2 66.2 2.4 5.1 3.8 329.6 321.3 0.00 0.0000000 77.8
2021-07-24 00:15:00 66.0 83.4 60.8 66.0 66.0 1.5 3.3 2.4 300.9 308.2 0.00 0.0000000 77.8
2021-07-24 00:20:00 65.8 84.5 61.0 65.8 65.8 1.0 2.4 1.5 264.2 275.1 0.00 0.0000000 77.8
2021-07-24 00:25:00 65.4 86.3 61.2 65.4 65.4 1.9 1.9 1.5 278.0 257.6 0.00 0.0000000 77.7
2021-07-24 00:30:00 65.2 87.3 61.4 65.2 65.2 1.9 2.2 1.8 285.6 282.9 0.00 0.0000000 77.7
2021-07-24 00:35:00 64.9 88.0 61.2 64.9 64.9 0.0 1.9 0.9 148.7 263.9 0.00 0.0000000 77.7
2021-07-24 00:40:00 64.7 88.5 61.3 64.7 64.7 1.0 1.5 0.5 347.4 42.3 0.00 0.0000000 77.7
2021-07-24 00:45:00 64.6 89.9 61.6 64.6 64.6 1.5 2.6 1.8 264.5 285.2 0.00 0.0000000 77.7
2021-07-24 00:50:00 64.3 90.3 61.4 64.3 64.3 0.0 2.2 1.0 216.1 202.2 0.00 0.0000000 77.7
2021-07-24 00:55:00 64.3 90.7 61.5 64.3 64.3 4.2 4.6 2.0 277.9 284.9 0.00 0.0000000 77.6
2021-07-24 01:00:00 64.1 90.7 61.4 64.1 64.1 1.0 4.4 2.9 314.0 280.2 0.00 0.0000000 77.6
2021-07-24 01:05:00 64.3 90.3 61.4 64.3 64.3 1.7 1.7 0.7 324.5 288.7 0.00 0.0000000 77.6
2021-07-24 01:10:00 64.1 92.0 61.8 64.1 64.1 3.3 3.7 2.6 290.6 310.8 0.00 0.0000000 77.6
2021-07-24 01:15:00 64.3 90.8 61.6 64.3 64.3 2.4 3.8 2.9 322.8 312.8 0.00 0.0000000 77.6
2021-07-24 01:20:00 64.3 91.1 61.6 64.3 64.3 3.1 4.0 3.4 308.1 315.1 0.00 0.0000000 77.5
2021-07-24 01:25:00 64.4 90.9 61.7 64.4 64.4 2.4 4.0 3.0 320.8 297.9 0.00 0.0000000 77.5
2021-07-24 01:30:00 64.3 91.0 61.6 64.3 64.3 1.9 2.1 1.3 288.0 253.9 0.00 0.0000000 77.5
2021-07-24 01:35:00 64.0 91.9 61.6 64.0 64.0 1.7 2.4 1.9 295.9 287.7 0.00 0.0000000 77.5
2021-07-24 01:40:00 63.8 92.3 61.5 63.8 63.8 1.3 1.7 0.8 270.4 251.9 0.00 0.0000000 77.5
2021-07-24 01:45:00 63.9 91.5 61.4 63.9 63.9 1.2 2.8 1.6 326.4 313.1 0.00 0.0000000 77.5
2021-07-24 01:50:00 63.9 91.6 61.4 63.9 63.9 2.2 2.6 2.1 312.0 320.8 0.00 0.0000000 77.5
2021-07-24 01:55:00 64.0 89.9 60.9 64.0 64.0 3.1 4.2 3.0 329.6 313.4 0.00 0.0000000 77.4
2021-07-24 02:00:00 64.0 90.1 61.0 64.0 64.0 2.2 4.6 3.1 283.8 300.7 0.00 0.0000000 77.4
2021-07-24 02:05:00 63.8 91.0 61.1 63.8 63.8 1.7 3.3 2.1 273.2 271.1 0.00 0.0000000 77.4
2021-07-24 02:10:00 63.6 90.9 60.9 63.6 63.6 2.2 2.8 1.4 282.9 275.4 0.00 0.0000000 77.4
2021-07-24 02:15:00 63.8 90.4 60.9 63.8 63.8 1.9 3.3 2.5 258.0 283.4 0.00 0.0000000 77.4
2021-07-24 02:20:00 63.8 90.4 60.9 63.8 63.8 1.7 3.8 2.6 296.2 289.0 0.00 0.0000000 77.3
2021-07-24 02:25:00 63.6 90.8 60.9 63.6 63.6 3.3 3.8 2.5 313.2 302.4 0.00 0.0000000 77.3
2021-07-24 02:30:00 63.5 91.6 61.0 63.5 63.5 1.3 3.3 2.3 285.8 304.9 0.00 0.0000000 77.3
2021-07-24 02:35:00 63.4 92.4 61.1 63.4 63.4 1.5 1.7 0.7 309.1 281.8 0.00 0.0000000 77.3
2021-07-24 02:40:00 63.0 93.5 61.1 63.0 63.0 3.0 3.0 2.3 308.4 318.8 0.00 0.0000000 77.3
2021-07-24 02:45:00 62.9 94.2 61.2 62.9 62.9 2.1 3.3 2.6 329.6 308.6 0.00 0.0000000 77.2
2021-07-24 02:50:00 62.8 94.4 61.1 62.8 62.8 0.0 2.4 1.2 279.7 303.3 0.00 0.0000000 77.2
2021-07-24 02:55:00 62.6 94.5 61.0 62.6 62.6 0.0 2.2 0.6 327.2 329.0 0.00 0.0000000 77.2
2021-07-24 03:00:00 62.4 94.6 60.9 62.4 62.4 1.3 1.3 0.1 99.6 96.8 0.00 0.0000000 77.2
2021-07-24 03:05:00 62.3 95.0 60.8 62.3 62.3 0.0 1.7 0.6 116.2 102.3 0.00 0.0000000 77.2
2021-07-24 03:10:00 62.1 94.8 60.6 62.1 62.1 0.0 0.0 0.0 116.2 0.0 0.00 0.0000000 77.2
2021-07-24 03:15:00 61.8 94.5 60.2 61.8 61.8 0.0 0.0 0.0 116.1 0.0 0.00 0.0000000 77.1
2021-07-24 03:20:00 62.0 95.6 60.7 62.0 62.0 0.0 0.0 0.0 74.6 0.0 0.00 0.0000000 77.1
2021-07-24 03:25:00 62.0 95.7 60.7 62.0 62.0 0.0 0.0 0.0 130.2 0.0 0.00 0.0000000 77.1
2021-07-24 03:30:00 62.1 96.3 61.1 62.1 62.1 0.0 0.0 0.0 216.4 0.0 0.00 0.0000000 77.1
2021-07-24 03:35:00 62.3 96.3 61.2 62.3 62.3 0.8 1.2 0.5 236.6 240.0 0.00 0.0000000 77.1
2021-07-24 03:40:00 62.2 96.2 61.1 62.2 62.2 0.0 1.0 0.5 229.5 253.3 0.00 0.0000000 77.1
2021-07-24 03:45:00 62.1 96.3 61.0 62.1 62.1 0.0 0.0 0.0 235.5 0.0 0.00 0.0000000 77.0
2021-07-24 03:50:00 62.0 96.1 60.9 62.0 62.0 0.0 0.0 0.0 236.4 0.0 0.00 0.0000000 77.0
2021-07-24 03:55:00 62.1 96.5 61.1 62.1 62.1 1.2 1.7 0.7 301.9 298.0 0.00 0.0000000 77.0
2021-07-24 04:00:00 62.0 96.6 61.0 62.0 62.0 1.2 1.5 1.1 299.3 298.5 0.00 0.0000000 77.0
2021-07-24 04:05:00 61.9 96.7 61.0 61.9 61.9 1.5 2.1 1.4 298.3 297.7 0.00 0.0000000 76.9
2021-07-24 04:10:00 61.9 96.8 60.9 61.9 61.9 0.0 1.2 0.5 304.3 292.7 0.00 0.0000000 76.9
2021-07-24 04:15:00 61.8 96.7 60.9 61.8 61.8 0.0 1.3 0.4 332.9 309.7 0.00 0.0000000 76.9
2021-07-24 04:20:00 61.8 96.8 60.9 61.8 61.8 0.0 0.0 0.0 322.4 0.0 0.00 0.0000000 76.9
2021-07-24 04:25:00 61.7 96.9 60.8 61.7 61.7 0.0 0.0 0.0 121.1 0.0 0.00 0.0000000 76.9
2021-07-24 04:30:00 61.7 96.9 60.8 61.7 61.7 0.0 0.0 0.0 114.8 0.0 0.00 0.0000000 76.9
2021-07-24 04:35:00 61.6 97.1 60.8 61.6 61.6 0.0 0.0 0.0 293.0 0.0 0.00 0.0000000 76.8
2021-07-24 04:40:00 61.7 97.2 60.9 61.7 61.7 1.9 2.1 0.8 294.3 302.7 0.00 0.0000000 76.8
2021-07-24 04:45:00 61.8 97.3 61.0 61.8 61.8 0.0 1.7 0.6 307.4 304.7 0.00 0.0000000 76.8
2021-07-24 04:50:00 61.8 97.5 61.1 61.8 61.8 1.5 2.4 1.0 204.0 194.7 0.00 0.0000000 76.8
2021-07-24 04:55:00 61.9 97.5 61.1 61.9 61.9 1.5 2.4 1.7 221.8 203.7 0.00 0.0000000 76.8
2021-07-24 05:00:00 61.8 97.4 61.1 61.8 61.8 2.4 2.8 1.6 216.3 211.8 0.00 0.0000000 76.7
2021-07-24 05:05:00 61.8 97.2 61.0 61.8 61.8 0.0 2.6 0.8 248.2 220.6 0.00 0.0000000 76.7
2021-07-24 05:10:00 61.8 97.2 61.0 61.8 61.8 0.0 0.0 0.0 293.4 0.0 0.00 0.0000000 76.7
2021-07-24 05:15:00 61.8 97.2 61.0 61.8 61.8 1.3 1.7 0.5 307.6 299.2 0.00 0.0000000 76.7
2021-07-24 05:20:00 61.7 97.1 60.9 61.7 61.7 1.5 2.4 1.8 303.7 313.3 0.00 0.0000000 76.7
2021-07-24 05:25:00 61.6 97.2 60.8 61.6 61.6 0.0 1.9 0.8 32.8 310.7 0.00 0.0000000 76.6
2021-07-24 05:30:00 61.8 97.2 60.9 61.8 61.8 0.0 0.0 0.0 270.5 0.0 0.00 0.0000000 76.6
2021-07-24 05:35:00 61.8 97.3 61.0 61.8 61.8 0.0 0.0 0.0 336.0 0.0 0.00 0.0000000 76.6
2021-07-24 05:40:00 61.6 97.2 60.8 61.6 61.6 0.0 0.0 0.0 334.8 0.0 0.00 0.0000000 76.6
2021-07-24 05:45:00 61.5 97.2 60.7 61.5 61.5 0.0 0.0 0.0 334.5 0.0 0.00 0.0000000 76.6
2021-07-24 05:50:00 61.7 97.4 60.9 61.7 61.7 1.3 1.3 0.1 325.9 325.2 0.00 0.0000000 76.6
2021-07-24 05:55:00 61.6 97.5 60.9 61.6 61.6 0.0 1.5 0.6 328.0 326.6 0.00 0.0000000 76.6
2021-07-24 06:00:00 61.6 97.6 60.9 61.6 61.6 2.1 2.6 2.1 310.5 313.5 0.00 0.0000000 76.6
2021-07-24 06:05:00 61.6 97.6 60.9 61.6 61.6 0.0 2.1 0.6 338.6 316.0 0.00 0.0000000 76.5
2021-07-24 06:10:00 61.5 97.6 60.8 61.5 61.5 0.0 0.8 0.1 335.2 318.4 0.00 0.0001033 76.5
2021-07-24 06:15:00 61.6 97.7 60.9 61.6 61.6 1.9 1.9 0.3 306.6 299.5 0.00 0.0005655 76.5
2021-07-24 06:20:00 61.6 97.6 60.9 61.6 61.6 0.0 1.7 0.5 309.8 293.7 0.00 0.0007090 76.5
2021-07-24 06:25:00 61.5 97.7 60.8 61.5 61.5 0.0 0.0 0.0 92.7 0.0 0.00 0.0016042 76.4
2021-07-24 06:30:00 61.6 97.6 60.9 61.6 61.6 0.0 0.0 0.0 121.5 0.0 0.00 0.0032692 76.4
2021-07-24 06:35:00 61.6 97.7 60.9 61.6 61.6 0.0 0.0 0.0 121.5 0.0 0.00 0.0053581 76.4
2021-07-24 06:40:00 61.8 97.8 61.2 61.8 61.8 0.0 0.0 0.0 291.0 0.0 0.00 0.0077422 76.4
2021-07-24 06:45:00 61.9 97.8 61.3 61.9 61.9 0.0 0.8 0.0 281.8 316.8 0.00 0.0101523 76.4
2021-07-24 06:50:00 62.1 97.8 61.4 62.1 62.1 0.0 0.0 0.0 163.0 0.0 0.00 0.0123154 76.4
2021-07-24 06:55:00 62.1 97.6 61.4 62.1 62.1 0.0 0.0 0.0 247.9 0.0 0.00 0.0146030 76.4
2021-07-24 07:00:00 62.2 97.6 61.5 62.2 62.2 0.0 0.0 0.0 237.3 0.0 0.00 0.0165715 76.3
2021-07-24 07:05:00 62.4 97.6 61.7 62.4 62.4 0.0 0.0 0.0 183.7 0.0 0.00 0.0185619 76.3
2021-07-24 07:10:00 62.8 97.4 62.0 62.8 62.8 0.0 0.0 0.0 142.1 0.0 0.00 0.0205903 76.3
2021-07-24 07:15:00 63.1 97.4 62.3 63.1 63.1 1.7 1.9 0.4 227.0 224.5 0.00 0.0229032 76.3
2021-07-24 07:20:00 63.4 97.1 62.5 63.4 63.4 0.0 2.1 0.8 249.3 242.8 0.00 0.0247824 76.3
2021-07-24 07:25:00 63.7 96.5 62.7 63.7 63.7 2.2 3.0 1.9 265.0 252.5 0.00 0.0312572 76.3
2021-07-24 07:30:00 64.0 95.5 62.7 64.0 64.0 0.8 2.2 1.2 275.1 217.5 0.00 0.0531396 76.3
2021-07-24 07:35:00 64.6 93.8 62.8 64.6 64.6 1.3 2.1 0.7 179.8 191.7 0.00 0.0571262 76.3
2021-07-24 07:40:00 65.2 90.7 62.4 65.2 65.2 1.9 3.0 2.0 157.4 156.1 0.00 0.0616011 76.2
2021-07-24 07:45:00 66.1 89.1 62.8 66.1 66.1 2.4 2.6 1.0 118.1 134.0 0.00 0.0720424 76.2
2021-07-24 07:50:00 66.6 85.7 62.2 66.6 66.6 2.4 2.8 2.4 105.7 123.2 0.00 0.0760852 76.2
2021-07-24 07:55:00 67.0 83.0 61.7 67.0 67.0 1.9 3.0 2.2 105.3 134.6 0.00 0.0745772 76.2
2021-07-24 08:00:00 67.9 83.7 62.7 67.9 67.9 0.0 1.7 0.7 148.5 110.1 0.00 0.0720756 76.2
2021-07-24 08:05:00 68.9 81.4 63.0 68.9 68.9 0.0 1.3 0.3 87.0 159.0 0.00 0.0865515 76.2
2021-07-24 08:10:00 69.1 75.9 61.1 69.1 69.1 0.0 2.6 1.3 105.9 131.2 0.00 0.0925265 76.2
2021-07-24 08:15:00 68.8 79.1 62.0 68.8 68.8 3.0 3.3 2.2 164.7 172.0 0.00 0.0995716 76.2
2021-07-24 08:20:00 68.8 79.8 62.3 68.8 68.8 2.8 3.7 2.8 183.8 156.8 0.00 0.1000385 76.2
2021-07-24 08:25:00 68.9 80.1 62.5 68.9 68.9 4.2 4.2 3.3 145.5 147.3 0.00 0.1064379 76.1
2021-07-24 08:30:00 69.4 82.2 63.8 69.4 69.4 2.8 4.2 3.2 90.3 141.1 0.00 0.1146812 76.2
2021-07-24 08:35:00 69.5 80.3 63.2 69.5 69.5 3.7 3.7 2.8 165.9 161.2 0.00 0.1203720 76.2
2021-07-24 08:40:00 69.7 78.0 62.6 69.7 69.7 0.0 4.0 2.4 159.1 160.5 0.00 0.1254662 76.2
2021-07-24 08:45:00 70.4 78.8 63.5 70.4 70.4 2.2 3.3 2.1 163.0 164.2 0.00 0.1340770 76.2
2021-07-24 08:50:00 71.1 79.8 64.5 71.1 71.1 1.9 3.7 1.9 215.2 125.5 0.00 0.1412268 76.2
2021-07-24 08:55:00 71.3 77.0 63.7 71.3 71.3 2.4 4.6 3.1 167.5 134.5 0.00 0.1486885 76.1
2021-07-24 09:00:00 71.1 77.2 63.6 71.1 71.1 3.7 4.6 3.5 144.5 165.2 0.00 0.1548283 76.2
2021-07-24 09:05:00 72.1 75.4 63.8 72.1 72.1 1.0 3.7 1.5 133.1 147.0 0.00 0.1608497 76.2
2021-07-24 09:10:00 73.3 72.9 64.0 73.3 73.3 3.5 3.5 0.7 78.0 180.0 0.00 0.1660561 76.2
2021-07-24 09:15:00 73.4 71.7 63.7 73.4 73.4 2.2 4.2 2.1 46.8 80.1 0.00 0.1625742 76.2
2021-07-24 09:20:00 73.3 71.0 63.3 73.3 73.3 3.8 4.4 3.0 85.0 98.9 0.00 0.1610262 76.2
2021-07-24 09:25:00 73.8 68.7 62.9 73.8 73.8 4.4 4.6 3.1 103.1 106.5 0.00 0.1882716 76.2
2021-07-24 09:30:00 74.2 66.5 62.3 74.2 74.2 4.0 5.3 3.5 160.0 136.3 0.00 0.1967355 76.2
2021-07-24 09:35:00 74.3 67.5 62.9 74.3 74.3 3.7 4.4 3.6 190.9 143.5 0.00 0.1925062 76.2
2021-07-24 09:40:00 74.0 67.0 62.4 74.0 74.0 2.8 5.5 3.7 154.8 173.4 0.00 0.2034504 76.3
2021-07-24 09:45:00 75.3 63.9 62.2 75.3 75.3 3.0 4.0 2.4 100.3 148.8 0.00 0.2127728 76.3
2021-07-24 09:50:00 75.9 61.9 61.9 75.9 75.9 5.3 6.7 2.8 114.8 127.3 0.00 0.2159353 76.3
2021-07-24 09:55:00 75.7 65.0 63.1 75.7 75.7 2.6 5.5 3.3 96.0 128.5 0.00 0.2163197 76.3
2021-07-24 10:00:00 76.1 61.2 61.7 76.1 76.1 3.8 5.5 3.5 116.7 140.8 0.00 0.2128745 76.4
2021-07-24 10:05:00 76.1 59.7 61.1 76.1 76.1 2.4 5.1 3.3 174.0 134.9 0.00 0.2125723 76.4
2021-07-24 10:10:00 76.2 61.2 61.8 76.2 76.2 3.7 7.1 4.2 147.4 157.4 0.00 0.2274370 76.4
2021-07-24 10:15:00 76.0 61.5 61.8 76.0 76.0 4.6 5.3 4.0 112.4 138.6 0.00 0.1678773 76.5
2021-07-24 10:20:00 75.9 60.9 61.5 75.9 75.9 1.3 6.2 4.0 125.5 167.4 0.00 0.1676888 76.5
2021-07-24 10:25:00 76.2 59.9 61.2 76.2 76.2 4.0 5.5 3.8 70.3 137.1 0.00 0.1195849 76.6
2021-07-24 10:30:00 76.4 58.8 60.9 76.4 76.4 2.1 4.7 2.2 197.1 168.3 0.00 0.1608380 76.6
2021-07-24 10:35:00 77.0 57.4 60.8 77.0 77.0 2.4 4.9 2.8 148.4 161.7 0.00 0.1781846 76.6
2021-07-24 10:40:00 77.3 58.4 61.6 77.3 77.3 3.1 5.1 3.4 103.8 143.3 0.00 0.1913861 76.7
2021-07-24 10:45:00 77.8 60.2 62.9 77.8 77.8 4.9 5.5 3.5 99.1 117.9 0.00 0.2189867 76.7
2021-07-24 10:50:00 78.3 57.5 62.1 78.3 78.3 6.0 7.1 4.5 136.4 110.9 0.00 0.2763379 76.7
2021-07-24 10:55:00 78.0 57.1 61.5 78.0 78.0 6.7 7.6 4.8 94.2 113.8 0.00 0.1852811 76.8
2021-07-24 11:00:00 78.2 58.5 62.5 78.2 78.2 1.7 5.6 3.4 226.8 96.6 0.00 0.2462937 76.8
2021-07-24 11:05:00 79.4 55.1 61.9 79.4 79.4 4.6 4.6 2.3 96.6 88.6 0.00 0.2164102 76.9
2021-07-24 11:10:00 78.9 60.8 64.3 78.9 78.9 3.5 5.8 4.1 108.6 113.9 0.00 0.1982015 76.9
2021-07-24 11:15:00 78.3 55.8 61.2 78.3 78.3 4.9 7.8 4.3 108.7 101.9 0.00 0.1772325 77.0
2021-07-24 11:20:00 78.8 55.6 61.5 78.8 78.8 5.1 6.2 4.2 107.2 106.7 0.00 0.1764134 77.0
2021-07-24 11:25:00 79.2 60.2 64.2 79.2 79.2 3.8 6.7 3.6 146.5 107.6 0.00 0.1787990 77.1
2021-07-24 11:30:00 79.0 60.1 64.0 79.0 79.0 5.5 8.8 5.4 79.1 100.1 0.00 0.1763459 77.1
2021-07-24 11:35:00 78.6 57.2 62.3 78.6 78.6 6.5 7.6 5.6 100.4 103.7 0.00 0.1652588 77.2
2021-07-24 11:40:00 78.7 60.0 63.7 78.7 78.7 5.3 8.8 5.6 95.5 100.2 0.00 0.1786105 77.2
2021-07-24 11:45:00 79.2 61.6 64.9 79.2 79.2 4.2 8.5 6.1 95.5 113.2 0.00 0.2208822 77.3
2021-07-24 11:50:00 79.7 54.2 61.7 79.7 79.7 5.3 8.3 5.5 83.3 106.0 0.00 0.2131895 77.3
2021-07-24 11:55:00 79.4 56.7 62.7 79.4 79.4 6.0 8.1 5.8 99.5 116.1 0.00 0.1351488 77.4
2021-07-24 12:00:00 79.4 61.5 65.0 79.4 79.4 4.2 8.5 5.6 102.3 97.8 0.00 0.1409833 77.4
2021-07-24 12:05:00 79.7 55.9 62.6 79.7 79.7 4.7 9.2 5.7 150.1 95.5 0.00 0.1691643 77.5
2021-07-24 12:10:00 79.9 55.8 62.7 79.9 79.9 4.9 7.6 5.0 92.4 129.9 0.00 0.0994656 77.5
2021-07-24 12:15:00 79.3 56.3 62.3 79.3 79.3 5.1 7.2 5.5 178.4 156.4 0.00 0.0667248 77.6
2021-07-24 12:20:00 79.0 58.3 63.1 79.0 79.0 3.8 7.4 4.3 292.8 244.9 0.00 0.0752051 77.6
2021-07-24 12:25:00 79.6 56.0 62.5 79.6 79.6 2.1 3.5 2.4 309.3 292.0 0.00 0.0807589 77.7
2021-07-24 12:30:00 79.8 55.9 62.7 79.8 79.8 2.8 3.8 2.5 283.0 303.8 0.00 0.0926634 77.7
2021-07-24 12:35:00 80.0 56.6 63.2 80.0 80.0 3.5 4.9 3.4 300.8 279.2 0.00 0.1130553 77.8
2021-07-24 12:40:00 79.9 54.5 62.0 79.9 79.9 4.9 7.8 5.3 271.9 291.9 0.00 0.1253627 77.8
2021-07-24 12:45:00 79.9 59.9 64.7 79.9 79.9 3.3 8.1 5.6 249.7 301.7 0.00 0.1241906 77.8
2021-07-24 12:50:00 80.2 54.0 62.1 80.2 81.4 3.3 6.2 4.2 284.7 276.6 0.00 0.1179437 77.9
2021-07-24 12:55:00 80.5 55.6 63.1 80.5 81.9 2.1 4.0 2.9 337.9 253.9 0.00 0.1308021 77.9
2021-07-24 13:00:00 80.7 50.6 60.6 80.7 81.5 2.2 3.7 2.8 270.6 252.7 0.00 0.1381200 78.0
2021-07-24 13:05:00 80.8 52.7 62.0 80.8 81.9 2.2 3.3 2.3 220.7 216.1 0.00 0.1341455 78.0
2021-07-24 13:10:00 81.1 53.0 62.4 81.1 82.3 2.2 2.6 2.0 176.6 217.6 0.00 0.1243848 78.0
2021-07-24 13:15:00 81.5 51.3 61.8 81.5 82.4 3.1 3.1 2.0 299.7 2.1 0.00 0.1212739 78.0
2021-07-24 13:20:00 81.3 50.7 61.3 81.3 82.1 2.1 3.3 2.3 207.1 227.5 0.00 0.1450289 78.1
2021-07-24 13:25:00 81.6 51.4 61.9 81.6 82.5 1.3 3.7 2.1 39.1 143.2 0.00 0.1572861 78.1
2021-07-24 13:30:00 82.1 47.2 59.9 82.1 82.4 3.1 3.5 2.0 25.2 39.2 0.00 0.1479424 78.2
2021-07-24 13:35:00 81.8 48.2 60.3 81.8 82.3 4.0 5.6 3.5 117.5 53.3 0.00 0.1597882 78.2
2021-07-24 13:40:00 82.3 41.8 56.8 82.3 81.9 2.6 6.0 3.0 72.9 156.3 0.00 0.1700734 78.2
2021-07-24 13:45:00 82.2 49.7 61.5 82.2 82.9 2.2 4.4 3.2 86.0 115.1 0.00 0.1681525 78.2
2021-07-24 13:50:00 82.8 44.1 58.7 82.8 82.7 3.7 3.8 2.2 294.6 169.5 0.00 0.1703156 78.3
2021-07-24 13:55:00 83.4 46.3 60.6 83.4 83.7 5.3 5.3 3.4 156.8 164.9 0.00 0.2164071 78.3
2021-07-24 14:00:00 83.3 51.9 63.8 83.3 84.6 2.2 5.1 3.2 109.2 143.8 0.00 0.2331736 78.3
2021-07-24 14:05:00 83.3 46.7 60.8 83.3 83.7 2.6 6.3 3.6 15.1 81.7 0.00 0.2384227 78.4
2021-07-24 14:10:00 83.1 47.2 60.9 83.1 83.5 2.8 4.0 3.1 27.0 82.2 0.00 0.2183151 78.4
2021-07-24 14:15:00 84.2 41.1 58.0 84.2 83.7 3.1 5.3 3.3 338.0 353.8 0.00 0.2976198 78.4
2021-07-24 14:20:00 84.9 46.5 62.2 84.9 85.6 1.7 3.1 2.3 111.9 106.8 0.00 0.3018508 78.5
2021-07-24 14:25:00 85.6 44.2 61.3 85.6 85.9 4.7 6.9 3.8 242.4 210.1 0.00 0.3010097 78.5
2021-07-24 14:30:00 85.4 38.4 57.2 85.4 85.4 6.0 6.3 4.4 184.1 248.7 0.00 0.3321287 78.5
2021-07-24 14:35:00 85.3 41.2 59.1 85.3 84.9 3.7 5.3 3.3 156.5 221.5 0.00 0.2484195 78.6
2021-07-24 14:40:00 85.3 42.2 59.8 85.3 85.1 2.6 6.7 4.3 157.5 230.0 0.00 0.3073171 78.6
2021-07-24 14:45:00 84.8 40.5 58.1 84.8 84.2 2.8 6.7 4.6 274.1 213.9 0.00 0.2291891 78.7
2021-07-24 14:50:00 84.5 43.3 59.8 84.5 84.4 5.6 8.0 4.4 122.4 192.4 0.00 0.1818597 78.7
2021-07-24 14:55:00 84.3 40.0 57.3 84.3 83.6 5.1 9.0 4.9 235.9 206.9 0.00 0.1654165 78.7
2021-07-24 15:00:00 85.0 41.1 58.8 85.0 84.5 5.8 7.2 3.0 214.1 204.3 0.00 0.1796581 78.8
2021-07-24 15:05:00 84.3 36.9 55.2 84.3 84.3 5.1 6.7 4.8 135.7 203.2 0.00 0.1636963 78.8
2021-07-24 15:10:00 84.3 40.5 57.7 84.3 83.7 4.4 5.6 3.8 137.1 140.3 0.00 0.1730417 78.9
2021-07-24 15:15:00 84.1 45.2 60.6 84.1 84.3 2.8 6.5 4.6 99.1 129.2 0.00 0.2070912 78.9
2021-07-24 15:20:00 85.5 40.7 58.9 85.5 85.0 4.2 6.2 3.4 87.3 65.2 0.00 0.2320240 79.0
2021-07-24 15:25:00 84.9 43.9 60.5 84.9 84.9 4.6 7.6 5.1 96.6 105.3 0.00 0.2182396 79.0
2021-07-24 15:30:00 84.4 43.4 59.7 84.4 84.3 3.1 6.2 4.2 107.4 97.8 0.00 0.1675404 79.1
2021-07-24 15:35:00 84.3 42.0 58.7 84.3 84.0 3.5 6.0 3.8 101.3 105.0 0.00 0.1462110 79.1
2021-07-24 15:40:00 84.1 43.7 59.6 84.1 84.0 6.9 8.5 4.7 80.7 112.6 0.00 0.1487870 79.2
2021-07-24 15:45:00 84.7 41.9 59.0 84.7 84.3 1.7 8.3 3.4 345.1 88.3 0.00 0.1551264 79.2
2021-07-24 15:50:00 85.2 46.7 62.5 85.2 86.0 2.1 4.2 2.9 84.4 88.2 0.00 0.1630836 79.3
2021-07-24 15:55:00 85.1 39.1 57.4 85.1 85.1 5.1 5.8 4.2 128.6 135.2 0.00 0.1862180 79.3
2021-07-24 16:00:00 84.8 39.3 57.3 84.8 84.8 4.2 7.1 4.8 80.4 104.7 0.00 0.1728127 79.4
2021-07-24 16:05:00 85.3 39.0 57.6 85.3 85.3 4.7 6.3 4.7 120.8 121.6 0.00 0.2144525 79.4
2021-07-24 16:10:00 85.9 40.3 58.9 85.9 85.3 5.1 5.6 4.0 92.9 108.7 0.00 0.2371092 79.4
2021-07-24 16:15:00 85.5 42.7 60.2 85.5 85.4 5.8 7.1 5.3 127.2 143.1 0.00 0.2362783 79.5
2021-07-24 16:20:00 86.1 40.0 59.0 86.1 85.5 7.2 7.2 4.0 109.9 130.8 0.00 0.2004519 79.5
2021-07-24 16:25:00 85.4 41.7 59.5 85.4 85.1 4.0 7.2 5.3 163.7 144.7 0.00 0.1349003 79.5
2021-07-24 16:30:00 85.1 40.8 58.7 85.1 84.6 3.8 7.2 3.9 161.9 145.8 0.00 0.0931274 79.6
2021-07-24 16:35:00 84.9 44.9 61.2 84.9 85.2 3.8 4.6 3.6 196.7 171.4 0.00 0.0885196 79.6
2021-07-24 16:40:00 84.3 41.1 58.1 84.3 83.7 5.3 6.5 4.4 200.3 163.6 0.00 0.0809744 79.6
2021-07-24 16:45:00 83.0 48.1 61.4 83.0 83.6 8.3 14.2 8.8 251.6 289.5 0.00 0.0884062 79.6
2021-07-24 16:50:00 82.6 49.1 61.6 82.6 83.3 9.9 14.0 8.6 288.2 286.7 0.00 0.1386317 79.7
2021-07-24 16:55:00 83.0 48.4 61.5 83.0 83.6 10.1 11.9 8.5 292.3 293.0 0.00 0.1868371 79.7
2021-07-24 17:00:00 82.5 52.1 63.1 82.5 83.7 7.6 12.2 8.9 277.9 285.4 0.00 0.1289634 79.7
2021-07-24 17:05:00 82.1 52.9 63.2 82.1 83.3 8.3 13.0 8.6 272.3 286.3 0.00 0.1599656 79.7
2021-07-24 17:10:00 81.9 54.0 63.6 81.9 83.2 9.6 14.4 8.4 258.3 289.5 0.00 0.1512236 79.8
2021-07-24 17:15:00 81.1 54.5 63.1 81.1 82.4 8.3 14.4 10.8 280.0 282.4 0.00 0.1347297 79.8
2021-07-24 17:20:00 81.6 52.6 62.6 81.6 82.7 6.2 11.5 7.9 275.3 292.8 0.00 0.1541081 79.8
2021-07-24 17:25:00 81.2 52.5 62.2 81.2 82.3 8.3 14.2 9.4 303.9 295.5 0.00 0.1348516 79.8
2021-07-24 17:30:00 80.5 54.5 62.5 80.5 81.7 6.9 12.2 9.1 332.4 295.7 0.00 0.0866899 79.8
2021-07-24 17:35:00 80.2 55.6 62.9 80.2 81.5 9.2 12.1 7.8 339.2 303.0 0.00 0.0698505 79.8
2021-07-24 17:40:00 79.7 55.9 62.6 79.7 79.7 8.3 12.2 7.6 314.0 314.5 0.00 0.0618848 79.9
2021-07-24 17:45:00 79.5 56.7 62.8 79.5 79.5 5.8 8.8 6.8 280.1 305.7 0.00 0.0793844 79.9
2021-07-24 17:50:00 79.6 56.1 62.6 79.6 79.6 6.7 13.1 7.8 332.9 311.2 0.00 0.0841456 79.9
2021-07-24 17:55:00 79.3 54.9 61.7 79.3 79.3 6.9 10.6 8.2 305.7 304.7 0.00 0.0783974 79.9
2021-07-24 18:00:00 79.4 55.0 61.8 79.4 79.4 8.1 10.5 7.5 333.8 314.9 0.00 0.0725653 79.9
2021-07-24 18:05:00 79.1 56.0 62.1 79.1 79.1 5.1 9.4 7.2 302.1 312.9 0.00 0.0613882 79.9
2021-07-24 18:10:00 78.9 56.9 62.3 78.9 78.9 5.1 10.1 6.8 291.0 304.2 0.00 0.0558169 79.9
2021-07-24 18:15:00 78.8 56.3 61.9 78.8 78.8 8.1 8.7 6.5 324.1 309.6 0.00 0.0472556 79.9
2021-07-24 18:20:00 78.7 58.2 62.8 78.7 78.7 4.7 9.0 5.0 313.1 317.8 0.00 0.0415398 79.9
2021-07-24 18:25:00 78.4 59.3 63.1 78.4 78.4 4.6 8.3 5.2 336.4 311.5 0.00 0.0431117 79.9
2021-07-24 18:30:00 78.4 57.5 62.2 78.4 78.4 7.1 7.4 6.0 318.5 322.7 0.00 0.0477155 79.9
2021-07-24 18:35:00 78.4 59.6 63.2 78.4 78.4 4.7 7.6 6.1 332.8 327.3 0.00 0.0406227 79.9
2021-07-24 18:40:00 78.3 59.5 63.0 78.3 78.3 5.1 7.2 5.7 329.9 329.6 0.00 0.0314000 79.9
2021-07-24 18:45:00 78.1 58.9 62.6 78.1 78.1 4.9 6.3 5.1 339.1 340.9 0.00 0.0286983 79.9
2021-07-24 18:50:00 77.9 59.9 62.9 77.9 77.9 4.7 6.9 5.2 331.2 328.1 0.00 0.0329887 79.9
2021-07-24 18:55:00 78.1 59.5 62.9 78.1 78.1 4.7 6.0 5.1 319.0 324.2 0.00 0.0319311 79.9
2021-07-24 19:00:00 77.9 60.8 63.3 77.9 77.9 3.8 5.6 4.3 321.8 319.5 0.00 0.0243027 79.9
2021-07-24 19:05:00 77.8 61.5 63.5 77.8 77.8 2.6 5.1 3.5 319.1 315.4 0.00 0.0221348 79.9
2021-07-24 19:10:00 77.5 61.6 63.2 77.5 77.5 3.8 4.9 3.5 318.7 315.4 0.00 0.0186484 79.9
2021-07-24 19:15:00 77.3 62.6 63.6 77.3 77.3 3.5 4.9 3.2 314.1 315.6 0.00 0.0165815 79.8
2021-07-24 19:20:00 77.0 63.1 63.5 77.0 77.0 3.3 3.8 3.3 318.0 305.5 0.00 0.0151642 79.8
2021-07-24 19:25:00 76.7 62.8 63.1 76.7 76.7 5.5 5.8 4.4 288.3 307.7 0.00 0.0141346 79.8
2021-07-24 19:30:00 76.4 64.8 63.7 76.4 76.4 3.5 4.6 3.7 330.3 306.2 0.00 0.0135469 79.8
2021-07-24 19:35:00 76.1 65.4 63.7 76.1 76.1 4.7 4.7 3.8 288.2 294.0 0.00 0.0121645 79.8
2021-07-24 19:40:00 75.8 66.7 64.0 75.8 75.8 3.5 4.9 4.0 317.7 299.4 0.00 0.0106257 79.8
2021-07-24 19:45:00 75.4 66.4 63.4 75.4 75.4 5.3 5.8 4.2 314.8 302.1 0.00 0.0089305 79.7
2021-07-24 19:50:00 75.2 67.4 63.6 75.2 75.2 4.0 5.8 3.6 320.3 299.1 0.00 0.0069804 79.7
2021-07-24 19:55:00 74.7 68.2 63.5 74.7 74.7 5.3 6.2 4.8 310.2 310.4 0.00 0.0049109 79.7
2021-07-24 20:00:00 74.5 67.8 63.2 74.5 74.5 3.1 5.8 4.2 288.6 303.0 0.00 0.0029353 79.7
2021-07-24 20:05:00 74.3 67.8 63.0 74.3 74.3 3.7 4.6 3.5 267.4 298.1 0.00 0.0012180 79.7
2021-07-24 20:10:00 74.1 69.6 63.5 74.1 74.1 1.2 3.3 1.8 319.2 290.5 0.00 0.0001630 79.6
2021-07-24 20:15:00 73.7 70.6 63.5 73.7 73.7 3.3 3.7 2.5 30.2 0.4 0.00 0.0000000 79.6
2021-07-24 20:20:00 73.5 72.6 64.2 73.5 73.5 1.7 3.1 2.3 293.2 352.6 0.00 0.0000000 79.6
2021-07-24 20:25:00 73.2 73.5 64.2 73.2 73.2 1.7 2.2 1.8 290.0 278.1 0.00 0.0000000 79.6
2021-07-24 20:30:00 72.6 76.3 64.7 72.6 72.6 2.2 2.4 1.9 328.4 308.7 0.00 0.0000000 79.6
2021-07-24 20:35:00 72.2 75.6 64.1 72.2 72.2 2.2 2.4 1.6 266.0 281.0 0.00 0.0000000 79.6
2021-07-24 20:40:00 72.1 77.0 64.5 72.1 72.1 1.5 2.6 1.9 258.7 262.0 0.00 0.0000000 79.5
2021-07-24 20:45:00 71.7 75.5 63.6 71.7 71.7 3.0 3.3 2.3 231.6 254.6 0.00 0.0000000 79.5
2021-07-24 20:50:00 71.6 76.3 63.7 71.6 71.6 3.3 4.2 2.9 253.1 270.9 0.00 0.0000000 79.5
2021-07-24 20:55:00 71.5 77.8 64.2 71.5 71.5 2.1 3.3 2.3 269.2 283.6 0.00 0.0000000 79.5
2021-07-24 21:00:00 71.3 78.2 64.2 71.3 71.3 2.1 3.0 2.0 282.3 286.8 0.00 0.0000000 79.4
2021-07-24 21:05:00 71.2 79.5 64.5 71.2 71.2 2.2 2.6 1.8 312.0 308.0 0.00 0.0000000 79.4
2021-07-24 21:10:00 70.8 80.6 64.6 70.8 70.8 2.4 3.0 2.2 301.9 286.7 0.00 0.0000000 79.4
2021-07-24 21:15:00 70.6 82.0 64.8 70.6 70.6 3.0 4.2 2.9 327.4 310.4 0.00 0.0000000 79.4
2021-07-24 21:20:00 70.4 81.8 64.5 70.4 70.4 3.5 4.2 3.3 277.7 310.6 0.00 0.0000000 79.3
2021-07-24 21:25:00 70.3 81.4 64.3 70.3 70.3 4.6 4.6 3.2 303.5 315.0 0.00 0.0000000 79.3
2021-07-24 21:30:00 70.4 80.6 64.1 70.4 70.4 1.7 4.7 2.5 266.2 294.8 0.00 0.0000000 79.3
2021-07-24 21:35:00 70.4 79.4 63.7 70.4 70.4 1.9 2.4 1.6 258.9 296.7 0.00 0.0000000 79.3

Data is courtesy of the NM Climate Center. DO NOT USE IN LEGAL PROCEEDINGS.